createdAt,value
2022-08-30T00:02:03.157Z,3.88
2022-08-30T00:07:04.988Z,3.60
2022-08-30T00:12:06.839Z,3.63
2022-08-30T00:17:08.473Z,4.10
2022-08-30T00:22:10.221Z,4.32
2022-08-30T00:27:12.107Z,3.88
2022-08-30T00:32:13.790Z,3.70
2022-08-30T00:37:15.470Z,4.18
2022-08-30T00:42:18.895Z,4.22
2022-08-30T00:47:21.063Z,5.78
2022-08-30T00:52:23.871Z,4.25
2022-08-30T00:57:25.751Z,4.47
2022-08-30T01:02:30.858Z,4.97
2022-08-30T01:07:35.536Z,5.95
2022-08-30T01:12:39.051Z,4.30
2022-08-30T01:17:43.922Z,4.32
2022-08-30T01:23:12.889Z,4.65
2022-08-30T01:28:20.905Z,5.07
2022-08-30T01:33:23.284Z,4.40
2022-08-30T01:38:28.776Z,5.72
2022-08-30T01:43:30.301Z,5.53
2022-08-30T01:48:32.358Z,8.82
2022-08-30T01:53:33.970Z,5.80
2022-08-30T01:58:37.158Z,5.10
2022-08-30T02:03:40.905Z,5.40
2022-08-30T02:08:43.512Z,5.65
2022-08-30T02:13:46.579Z,6.18
2022-08-30T02:18:49.004Z,5.97
2022-08-30T02:23:51.795Z,5.93
2022-08-30T02:28:54.076Z,5.25
2022-08-30T02:33:57.264Z,5.97
2022-08-30T02:38:58.942Z,7.28
2022-08-30T02:44:00.884Z,5.97
2022-08-30T02:49:23.708Z,7.10
2022-08-30T02:54:24.848Z,5.93
2022-08-30T02:59:26.952Z,6.40
2022-08-30T03:04:28.622Z,5.25
2022-08-30T03:09:30.279Z,6.53
2022-08-30T03:14:32.196Z,5.82
2022-08-30T03:19:36.493Z,6.75
2022-08-30T03:24:38.418Z,6.22
2022-08-30T03:29:40.049Z,6.45
2022-08-30T03:34:41.772Z,6.38
2022-08-30T03:39:45.577Z,6.95
2022-08-30T03:44:47.258Z,6.35
2022-08-30T03:49:48.986Z,6.38
2022-08-30T03:54:50.619Z,5.53
2022-08-30T03:59:52.486Z,5.68
2022-08-30T04:04:54.126Z,5.50
2022-08-30T04:09:55.818Z,6.05
2022-08-30T04:14:57.492Z,6.57
2022-08-30T04:19:59.284Z,5.55
2022-08-30T04:25:00.973Z,6.13
2022-08-30T04:30:02.657Z,6.32
2022-08-30T04:35:05.710Z,6.05
2022-08-30T04:40:08.552Z,6.53
2022-08-30T04:45:14.827Z,6.40
2022-08-30T04:50:19.687Z,6.10
2022-08-30T04:55:21.906Z,7.00
2022-08-30T05:00:23.784Z,6.15
2022-08-30T05:05:40.480Z,6.13
2022-08-30T05:10:45.470Z,6.45
2022-08-30T05:15:48.690Z,6.70
2022-08-30T05:20:50.348Z,5.70
2022-08-30T05:25:52.041Z,6.25
2022-08-30T05:30:53.698Z,5.65
2022-08-30T05:35:55.320Z,5.90
2022-08-30T05:40:56.924Z,6.47
2022-08-30T05:46:03.611Z,6.03
2022-08-30T05:51:11.617Z,6.15
2022-08-30T05:56:15.364Z,7.68
2022-08-30T06:01:29.193Z,6.90
2022-08-30T06:06:33.386Z,6.63
2022-08-30T06:11:36.151Z,6.07
2022-08-30T06:16:39.870Z,6.07
2022-08-30T06:21:43.463Z,7.68
2022-08-30T06:26:47.226Z,6.35
2022-08-30T06:31:48.900Z,6.10
2022-08-30T06:36:50.557Z,6.35
2022-08-30T06:41:52.151Z,8.02
2022-08-30T06:47:12.104Z,6.97
2022-08-30T06:52:13.661Z,8.93
2022-08-30T06:57:15.556Z,6.25
2022-08-30T07:02:17.224Z,7.13
2022-08-30T07:07:18.911Z,7.15
2022-08-30T07:12:21.042Z,7.80
2022-08-30T07:17:41.603Z,8.60
2022-08-30T07:22:43.194Z,8.02
2022-08-30T07:27:46.067Z,7.15
2022-08-30T07:32:47.915Z,7.25
2022-08-30T07:37:49.803Z,6.18
2022-08-30T07:42:52.693Z,7.35
2022-08-30T07:47:54.300Z,7.47
2022-08-30T07:52:55.942Z,7.15
2022-08-30T07:57:57.596Z,7.13
2022-08-30T08:03:05.480Z,6.72
2022-08-30T08:08:07.484Z,6.93
2022-08-30T08:13:09.377Z,6.30
2022-08-30T08:18:11.081Z,6.47
2022-08-30T08:23:12.725Z,6.68
2022-08-30T08:28:14.390Z,6.93
2022-08-30T08:33:17.079Z,6.85
2022-08-30T08:38:18.798Z,7.30
2022-08-30T08:43:25.542Z,6.80
2022-08-30T08:48:58.570Z,6.05
2022-08-30T08:54:31.071Z,6.65
2022-08-30T08:59:32.758Z,5.88
2022-08-30T09:04:37.926Z,6.95
2022-08-30T09:09:42.269Z,6.03
2022-08-30T09:14:51.575Z,5.97
2022-08-30T09:20:00.167Z,6.30
2022-08-30T09:25:08.548Z,5.82
2022-08-30T09:35:23.995Z,7.10
2022-08-30T09:40:31.697Z,6.53
2022-08-30T09:45:40.775Z,5.60
2022-08-30T09:50:46.331Z,4.90
2022-08-30T09:56:33.145Z,4.55
2022-08-30T10:01:46.212Z,5.20
2022-08-30T10:06:58.041Z,4.30
2022-08-30T10:12:15.468Z,5.22
2022-08-30T10:17:50.568Z,4.15
2022-08-30T10:23:02.403Z,4.57
2022-08-30T10:28:14.683Z,4.70
2022-08-30T10:33:36.268Z,4.57
2022-08-30T10:38:40.671Z,4.90
2022-08-30T10:44:16.451Z,4.85
2022-08-30T10:49:25.067Z,5.05
2022-08-30T10:54:40.931Z,7.13
2022-08-30T10:59:48.264Z,4.32
2022-08-30T11:05:34.622Z,4.32
2022-08-30T11:11:01.762Z,4.75
2022-08-30T11:16:15.759Z,4.53
2022-08-30T11:21:17.735Z,5.20
2022-08-30T11:26:45.245Z,4.57
2022-08-30T11:36:53.109Z,4.85
2022-08-30T11:42:33.634Z,8.02
2022-08-30T11:47:51.452Z,6.10
2022-08-30T11:53:38.844Z,4.60
2022-08-30T11:58:48.626Z,4.28
2022-08-30T12:04:15.031Z,4.45
2022-08-30T12:09:23.960Z,3.90
2022-08-30T12:14:55.101Z,5.72
2022-08-30T12:19:59.765Z,3.90
2022-08-30T12:25:02.855Z,3.92
2022-08-30T12:30:10.011Z,3.75
2022-08-30T12:35:20.963Z,4.05
2022-08-30T12:40:24.558Z,3.40
2022-08-30T12:45:33.417Z,3.63
2022-08-30T12:50:54.556Z,3.00
2022-08-30T12:56:15.406Z,3.08
2022-08-30T13:01:24.560Z,2.83
2022-08-30T13:06:53.414Z,3.20
2022-08-30T13:11:58.387Z,2.97
2022-08-30T13:17:07.684Z,4.47
2022-08-30T13:22:29.985Z,3.40
2022-08-30T13:27:32.915Z,3.15
2022-08-30T13:32:39.170Z,3.35
2022-08-30T13:37:47.372Z,2.90
2022-08-30T13:42:52.579Z,2.63
2022-08-30T13:47:55.941Z,2.30
2022-08-30T13:52:58.250Z,1.77
2022-08-30T13:57:59.839Z,2.53
2022-08-30T14:03:02.614Z,1.95
2022-08-30T14:08:05.813Z,2.30
2022-08-30T14:13:10.149Z,2.45
2022-08-30T14:18:17.190Z,4.18
2022-08-30T14:23:19.520Z,2.20
2022-08-30T14:28:21.669Z,2.05
2022-08-30T14:33:23.991Z,2.15
2022-08-30T14:38:25.928Z,1.85
2022-08-30T14:43:27.487Z,1.80
2022-08-30T14:48:29.129Z,3.45
2022-08-30T14:53:32.046Z,2.15
2022-08-30T14:58:34.505Z,2.50
2022-08-30T15:03:38.478Z,3.15
2022-08-30T15:08:40.367Z,2.00
2022-08-30T15:13:44.459Z,1.85
2022-08-30T15:18:46.935Z,2.08
2022-08-30T15:23:49.595Z,2.00
2022-08-30T15:28:52.529Z,2.22
2022-08-30T15:33:54.222Z,2.53
2022-08-30T15:38:56.444Z,2.28
2022-08-30T15:43:59.537Z,2.55
2022-08-30T15:49:06.990Z,2.05
2022-08-30T15:54:11.610Z,2.03
2022-08-30T15:59:18.510Z,1.83
2022-08-30T16:04:20.389Z,2.10
2022-08-30T16:09:22.695Z,2.25
2022-08-30T16:14:24.689Z,2.22
2022-08-30T16:19:26.867Z,2.30
2022-08-30T16:24:31.629Z,3.45
2022-08-30T16:29:33.286Z,2.05
2022-08-30T16:34:35.839Z,2.40
2022-08-30T16:39:38.970Z,2.05
2022-08-30T16:44:40.589Z,1.83
2022-08-30T16:49:42.771Z,2.35
2022-08-30T16:54:44.473Z,2.17
2022-08-30T16:59:46.095Z,4.15
2022-08-30T17:04:52.913Z,3.53
2022-08-30T17:09:54.979Z,2.20
2022-08-30T17:14:57.459Z,2.05
2022-08-30T17:19:59.203Z,1.95
2022-08-30T17:25:01.719Z,2.35
2022-08-30T17:30:06.512Z,2.08
2022-08-30T17:35:09.370Z,2.50
2022-08-30T17:40:14.740Z,2.17
2022-08-30T17:45:17.238Z,2.28
2022-08-30T17:50:19.579Z,3.03
2022-08-30T17:55:21.722Z,2.92
2022-08-30T18:00:23.961Z,1.85
2022-08-30T18:05:26.021Z,3.15
2022-08-30T18:10:31.459Z,2.22
2022-08-30T18:15:36.326Z,3.38
2022-08-30T18:20:40.476Z,2.05
2022-08-30T18:25:42.430Z,4.07
2022-08-30T18:30:45.884Z,2.42
2022-08-30T18:35:49.221Z,2.30
2022-08-30T18:40:52.297Z,3.28
2022-08-30T18:45:54.611Z,2.97
2022-08-30T18:50:56.314Z,2.55
2022-08-30T18:55:58.033Z,2.95
2022-08-30T19:00:59.707Z,3.17
2022-08-30T19:06:06.962Z,3.08
2022-08-30T19:11:10.459Z,3.35
2022-08-30T19:16:13.268Z,2.78
2022-08-30T19:21:16.267Z,3.42
2022-08-30T19:26:19.238Z,3.70
2022-08-30T19:31:20.831Z,6.38
2022-08-30T19:36:22.551Z,3.58
2022-08-30T19:41:25.415Z,4.03
2022-08-30T19:46:26.978Z,3.30
2022-08-30T19:51:28.825Z,3.10
2022-08-30T19:56:34.069Z,4.22
2022-08-30T20:01:35.798Z,3.38
2022-08-30T20:06:37.535Z,3.72
2022-08-30T20:11:39.763Z,3.75
2022-08-30T20:16:42.059Z,4.22
2022-08-30T20:21:44.433Z,4.97
2022-08-30T20:26:46.111Z,5.10
2022-08-30T20:31:49.028Z,4.13
2022-08-30T20:36:52.285Z,3.88
2022-08-30T20:41:57.205Z,3.80
2022-08-30T20:46:58.967Z,4.22
2022-08-30T20:52:00.749Z,4.03
2022-08-30T20:57:07.092Z,4.30
2022-08-30T21:02:09.202Z,4.10
2022-08-30T21:07:12.628Z,3.97
2022-08-30T21:12:14.297Z,3.78
2022-08-30T21:17:16.122Z,4.18
2022-08-30T21:22:17.801Z,4.40
2022-08-30T21:27:21.340Z,3.97
2022-08-30T21:32:23.078Z,4.47
2022-08-30T21:37:25.384Z,3.97
2022-08-30T21:42:27.665Z,4.53
2022-08-30T21:47:29.319Z,3.70
2022-08-30T21:52:31.028Z,4.32
2022-08-30T21:57:33.024Z,4.00
2022-08-30T22:02:34.878Z,4.13
2022-08-30T22:07:37.653Z,4.03
2022-08-30T22:12:39.627Z,4.32
2022-08-30T22:17:43.393Z,3.65
2022-08-30T22:22:45.112Z,4.13
2022-08-30T22:27:46.770Z,4.07
2022-08-30T22:32:48.687Z,4.10
2022-08-30T22:37:53.632Z,3.92
2022-08-30T22:42:55.636Z,3.85
2022-08-30T22:47:58.118Z,3.97
2022-08-30T22:52:59.883Z,5.50
2022-08-30T22:58:01.561Z,4.55
2022-08-30T23:03:04.197Z,4.30
2022-08-30T23:08:07.085Z,4.43
2022-08-30T23:13:08.961Z,4.47
2022-08-30T23:18:10.708Z,4.95
2022-08-30T23:23:31.188Z,4.50
2022-08-30T23:28:51.726Z,4.32
2022-08-30T23:34:11.928Z,4.35
2022-08-30T23:39:32.391Z,3.95
2022-08-30T23:44:53.229Z,4.07
2022-08-30T23:50:13.742Z,4.90
2022-08-30T23:55:34.303Z,4.95
